New Summerfield, Texas
Current Conditions -  °F | °C
As of 11:35 PM on Sunday 21 Dec 2014 (Local Time) from KJSO Reporting Station
Overcast Overcast  
Wind Chill: 51°   Ceiling: 2900
Heat Index: 51°   Visibility: 10mi
Dew Point: 49°   Wind: 9mph
Humidity: 92%   Direction: 170°S
Pressure: 29.86"   Gusts: NA
Location:  31.98°N, 95.09°W
Report Text: KJSO 220535Z AUTO 17008KT 10SM SCT006 OVC029 10/09 A2986 RMK AO2 T01050092
Loading
Personal Weather Stations






























Interactive Weather Map New forecast layout! Learn more

10-Day Weather Forecast

Advertisements
Track Severe Weather on mobile